createdAt,value
2022-10-18T00:01:04.568Z,4.60
2022-10-18T00:03:32.285Z,4.97
2022-10-18T00:06:00.980Z,9.00
2022-10-18T00:08:28.981Z,18.92
2022-10-18T00:10:56.626Z,11.45
2022-10-18T00:13:25.081Z,11.25
2022-10-18T00:15:55.018Z,10.52
2022-10-18T00:18:23.067Z,13.55
2022-10-18T00:21:02.799Z,13.27
2022-10-18T00:23:32.352Z,10.13
2022-10-18T00:26:02.439Z,12.98
2022-10-18T00:28:30.277Z,8.73
2022-10-18T00:30:58.400Z,11.93
2022-10-18T00:33:25.972Z,11.27
2022-10-18T00:35:53.816Z,14.50
2022-10-18T00:38:21.470Z,11.20
2022-10-18T00:40:49.086Z,12.57
2022-10-18T00:43:18.237Z,10.40
2022-10-18T00:45:45.902Z,16.60
2022-10-18T00:48:16.618Z,13.88
2022-10-18T00:50:44.810Z,13.15
2022-10-18T00:53:19.071Z,17.52
2022-10-18T00:55:47.571Z,12.98
2022-10-18T00:58:18.274Z,14.07
2022-10-18T01:00:45.884Z,12.57
2022-10-18T01:03:13.591Z,10.45
2022-10-18T01:05:46.149Z,15.82
2022-10-18T01:08:13.697Z,11.32
2022-10-18T01:11:01.520Z,22.55
2022-10-18T01:14:04.483Z,15.48
2022-10-18T01:16:40.831Z,10.00
2022-10-18T01:19:26.166Z,18.80
2022-10-18T01:22:21.420Z,10.95
2022-10-18T01:27:52.058Z,11.20
2022-10-18T01:30:44.218Z,12.05
2022-10-18T01:33:19.300Z,15.52
2022-10-18T01:36:10.904Z,15.95
2022-10-18T01:38:40.767Z,11.00
2022-10-18T01:41:14.782Z,11.57
2022-10-18T01:43:45.192Z,26.77
2022-10-18T01:46:16.953Z,13.88
2022-10-18T01:48:44.928Z,18.52
2022-10-18T01:51:12.837Z,10.85
2022-10-18T01:53:40.486Z,10.73
2022-10-18T01:56:25.241Z,18.85
2022-10-18T01:59:23.131Z,10.75
2022-10-18T02:02:41.349Z,7.85
2022-10-18T02:05:31.821Z,30.10
2022-10-18T02:08:23.960Z,21.85
2022-10-18T02:11:00.711Z,20.58
2022-10-18T02:13:33.342Z,23.12
2022-10-18T02:16:10.872Z,17.25
2022-10-18T02:18:43.129Z,22.17
2022-10-18T02:21:13.897Z,23.35
2022-10-18T02:23:41.580Z,13.88
2022-10-18T02:26:09.275Z,15.23
2022-10-18T02:28:36.990Z,11.52
2022-10-18T02:31:23.165Z,8.27
2022-10-18T02:33:57.052Z,8.20
2022-10-18T02:36:32.645Z,5.90
2022-10-18T02:39:05.956Z,5.97
2022-10-18T02:41:34.317Z,6.65
2022-10-18T02:44:01.944Z,6.62
2022-10-18T02:46:29.713Z,6.55
2022-10-18T02:48:57.342Z,6.82
2022-10-18T02:51:25.925Z,7.45
2022-10-18T02:53:53.727Z,5.90
2022-10-18T02:56:21.358Z,6.75
2022-10-18T02:58:48.985Z,7.82
2022-10-18T03:01:16.649Z,8.57
2022-10-18T03:03:44.388Z,6.10
2022-10-18T03:06:12.045Z,5.62
2022-10-18T03:08:40.065Z,5.35
2022-10-18T03:11:07.722Z,6.00
2022-10-18T03:13:35.451Z,5.18
2022-10-18T03:16:03.221Z,5.40
2022-10-18T03:18:30.994Z,5.18
2022-10-18T03:20:58.638Z,4.87
2022-10-18T03:23:26.353Z,5.53
2022-10-18T03:25:53.955Z,5.37
2022-10-18T03:28:22.178Z,4.70
2022-10-18T03:30:49.785Z,5.28
2022-10-18T03:33:17.592Z,5.70
2022-10-18T03:35:45.223Z,5.30
2022-10-18T03:38:12.854Z,5.93
2022-10-18T03:40:40.469Z,6.72
2022-10-18T03:43:08.132Z,5.85
2022-10-18T03:45:35.782Z,4.70
2022-10-18T03:48:03.402Z,4.72
2022-10-18T03:50:31.013Z,6.50
2022-10-18T03:52:58.645Z,5.87
2022-10-18T03:55:26.378Z,4.97
2022-10-18T03:57:54.039Z,5.93
2022-10-18T04:00:21.822Z,6.62
2022-10-18T04:02:53.357Z,6.35
2022-10-18T04:05:25.244Z,5.10
2022-10-18T04:07:52.861Z,6.20
2022-10-18T04:10:20.929Z,7.10
2022-10-18T04:12:48.558Z,6.07
2022-10-18T04:15:16.671Z,6.95
2022-10-18T04:17:44.338Z,10.00
2022-10-18T04:20:12.490Z,8.52
2022-10-18T04:22:40.286Z,6.57
2022-10-18T04:25:08.247Z,6.57
2022-10-18T04:27:36.241Z,7.75
2022-10-18T04:30:04.009Z,6.80
2022-10-18T04:32:31.921Z,10.38
2022-10-18T04:34:59.625Z,17.35
2022-10-18T04:37:27.237Z,11.40
2022-10-18T04:39:54.847Z,7.62
2022-10-18T04:42:23.629Z,14.38
2022-10-18T04:44:51.463Z,14.05
2022-10-18T04:47:19.096Z,13.70
2022-10-18T04:49:46.712Z,14.25
2022-10-18T04:52:14.574Z,13.62
2022-10-18T04:54:42.154Z,12.27
2022-10-18T04:57:09.802Z,11.70
2022-10-18T04:59:38.303Z,13.95
2022-10-18T05:02:06.002Z,16.40
2022-10-18T05:04:33.649Z,12.88
2022-10-18T05:07:01.420Z,14.15
2022-10-18T05:09:29.149Z,12.65
2022-10-18T05:11:56.803Z,21.85
2022-10-18T05:14:24.555Z,11.43
2022-10-18T05:16:52.151Z,22.85
2022-10-18T05:19:19.854Z,18.37
2022-10-18T05:21:47.607Z,18.85
2022-10-18T05:24:15.366Z,15.50
2022-10-18T05:26:42.982Z,17.42
2022-10-18T05:29:10.771Z,10.63
2022-10-18T05:31:38.475Z,13.75
2022-10-18T05:34:06.140Z,15.10
2022-10-18T05:36:33.861Z,19.10
2022-10-18T05:39:04.922Z,22.25
2022-10-18T05:41:33.436Z,27.70
2022-10-18T05:44:08.049Z,16.25
2022-10-18T05:46:35.749Z,22.83
2022-10-18T05:49:03.413Z,21.25
2022-10-18T05:51:31.046Z,23.55
2022-10-18T05:53:59.858Z,12.57
2022-10-18T05:56:27.555Z,16.55
2022-10-18T05:58:55.241Z,29.73
2022-10-18T06:01:23.016Z,24.60
2022-10-18T06:03:51.753Z,44.17
2022-10-18T06:06:19.506Z,37.63
2022-10-18T06:08:50.464Z,38.08
2022-10-18T06:11:19.754Z,43.90
2022-10-18T06:13:49.631Z,24.75
2022-10-18T06:16:20.016Z,27.42
2022-10-18T06:18:52.521Z,26.17
2022-10-18T06:21:20.902Z,21.75
2022-10-18T06:23:56.285Z,20.70
2022-10-18T06:26:24.306Z,26.15
2022-10-18T06:28:52.603Z,16.05
2022-10-18T06:31:21.645Z,19.05
2022-10-18T06:33:49.515Z,20.98
2022-10-18T06:36:23.338Z,17.30
2022-10-18T06:38:52.050Z,19.15
2022-10-18T06:41:20.662Z,14.38
2022-10-18T06:43:52.947Z,13.85
2022-10-18T06:46:20.938Z,12.57
2022-10-18T06:48:48.618Z,13.38
2022-10-18T06:51:16.533Z,11.27
2022-10-18T06:53:53.412Z,17.92
2022-10-18T06:56:27.226Z,15.93
2022-10-18T06:58:54.915Z,14.40
2022-10-18T07:01:22.803Z,13.77
2022-10-18T07:03:53.218Z,13.20
2022-10-18T07:06:21.802Z,33.42
2022-10-18T07:08:51.379Z,15.65
2022-10-18T07:11:25.389Z,15.20
2022-10-18T07:13:55.586Z,12.25
2022-10-18T07:16:23.367Z,16.37
2022-10-18T07:18:52.503Z,13.80
2022-10-18T07:21:22.448Z,10.80
2022-10-18T07:23:51.072Z,17.42
2022-10-18T07:26:26.048Z,10.80
2022-10-18T07:29:00.191Z,13.77
2022-10-18T07:31:28.283Z,14.13
2022-10-18T07:33:56.235Z,14.70
2022-10-18T07:36:23.983Z,11.32
2022-10-18T07:38:53.126Z,13.65
2022-10-18T07:41:21.883Z,14.75
2022-10-18T07:43:54.720Z,9.40
2022-10-18T07:46:23.711Z,12.80
2022-10-18T07:48:51.986Z,16.70
2022-10-18T07:51:20.807Z,12.02
2022-10-18T07:53:49.125Z,13.38
2022-10-18T07:56:21.615Z,14.45
2022-10-18T07:58:54.631Z,14.82
2022-10-18T08:01:24.531Z,9.88
2022-10-18T08:03:53.392Z,13.32
2022-10-18T08:06:22.672Z,15.43
2022-10-18T08:08:50.507Z,11.95
2022-10-18T08:11:23.595Z,15.35
2022-10-18T08:13:52.480Z,12.30
2022-10-18T08:16:22.810Z,16.00
2022-10-18T08:18:50.788Z,14.35
2022-10-18T08:21:19.824Z,10.60
2022-10-18T08:23:48.037Z,11.27
2022-10-18T08:26:18.308Z,11.38
2022-10-18T08:28:54.088Z,10.40
2022-10-18T08:31:32.198Z,14.70
2022-10-18T08:33:59.966Z,12.05
2022-10-18T08:36:27.622Z,12.45
2022-10-18T08:38:55.265Z,11.57
2022-10-18T08:41:30.370Z,10.05
2022-10-18T08:44:26.250Z,11.85
2022-10-18T08:46:59.875Z,10.65
2022-10-18T08:49:33.453Z,14.52
2022-10-18T08:52:01.282Z,14.43
2022-10-18T08:54:50.683Z,14.45
2022-10-18T08:57:19.350Z,10.75
2022-10-18T08:59:47.093Z,10.50
2022-10-18T09:02:40.358Z,10.93
2022-10-18T09:05:26.250Z,9.45
2022-10-18T09:07:54.189Z,9.95
2022-10-18T09:10:55.667Z,11.90
2022-10-18T09:13:47.664Z,10.68
2022-10-18T09:16:25.583Z,10.55
2022-10-18T09:19:19.538Z,11.18
2022-10-18T09:21:56.013Z,10.88
2022-10-18T09:24:28.151Z,10.85
2022-10-18T09:27:19.201Z,11.30
2022-10-18T09:29:46.769Z,11.10
2022-10-18T09:32:26.559Z,11.57
2022-10-18T09:35:13.126Z,11.95
2022-10-18T09:37:42.462Z,13.20
2022-10-18T09:40:32.073Z,12.48
2022-10-18T09:43:06.971Z,13.18
2022-10-18T09:45:41.519Z,12.88
2022-10-18T09:48:34.579Z,14.70
2022-10-18T09:51:09.062Z,13.45
2022-10-18T09:53:45.291Z,12.10
2022-10-18T09:56:18.888Z,13.60
2022-10-18T09:58:49.374Z,11.52
2022-10-18T10:01:30.306Z,13.73
2022-10-18T10:03:58.461Z,11.85
2022-10-18T10:06:33.142Z,10.88
2022-10-18T10:09:15.114Z,12.40
2022-10-18T10:11:48.025Z,10.88
2022-10-18T10:14:18.542Z,10.30
2022-10-18T10:17:04.472Z,12.13
2022-10-18T10:19:54.009Z,10.35
2022-10-18T10:22:29.643Z,10.48
2022-10-18T10:24:57.683Z,10.20
2022-10-18T10:27:25.220Z,10.38
2022-10-18T10:29:58.822Z,10.77
2022-10-18T10:32:32.793Z,11.85
2022-10-18T10:35:00.785Z,10.15
2022-10-18T10:37:34.674Z,12.15
2022-10-18T10:40:26.483Z,10.18
2022-10-18T10:43:38.824Z,9.60
2022-10-18T10:46:11.425Z,9.10
2022-10-18T10:49:21.642Z,9.25
2022-10-18T10:51:53.692Z,10.73
2022-10-18T10:54:37.230Z,9.77
2022-10-18T10:57:06.148Z,8.88
2022-10-18T10:59:52.826Z,8.23
2022-10-18T11:02:30.765Z,11.23
2022-10-18T11:05:22.899Z,8.55
2022-10-18T11:07:56.360Z,8.55
2022-10-18T11:10:26.767Z,8.77
2022-10-18T11:12:57.409Z,9.15
2022-10-18T11:15:33.710Z,7.85
2022-10-18T11:18:25.611Z,9.02
2022-10-18T11:21:02.274Z,9.30
2022-10-18T11:23:33.926Z,10.30
2022-10-18T11:26:07.526Z,7.82
2022-10-18T11:28:38.154Z,8.82
2022-10-18T11:31:27.086Z,7.80
2022-10-18T11:34:30.414Z,6.18
2022-10-18T11:37:15.978Z,10.80
2022-10-18T11:40:07.158Z,7.00
2022-10-18T11:42:52.924Z,7.53
2022-10-18T11:45:59.953Z,4.43
2022-10-18T11:48:36.248Z,7.28
2022-10-18T11:52:03.073Z,6.10
2022-10-18T11:55:01.005Z,7.03
2022-10-18T11:57:44.037Z,6.03
2022-10-18T12:00:41.600Z,4.82
2022-10-18T12:03:24.029Z,6.25
2022-10-18T12:05:53.971Z,5.22
2022-10-18T12:09:02.901Z,6.53
2022-10-18T12:11:35.550Z,6.40
2022-10-18T12:14:26.207Z,5.37
2022-10-18T12:17:20.357Z,5.05
2022-10-18T12:19:47.218Z,8.40
2022-10-18T12:22:22.391Z,8.52
2022-10-18T12:24:50.014Z,6.53
2022-10-18T12:27:18.636Z,7.30
2022-10-18T12:30:01.215Z,5.70
2022-10-18T12:32:35.483Z,4.87
2022-10-18T12:35:08.250Z,7.03
2022-10-18T12:38:10.765Z,6.82
2022-10-18T12:40:45.059Z,7.43
2022-10-18T12:43:37.637Z,7.03
2022-10-18T12:46:13.749Z,6.30
2022-10-18T12:48:49.960Z,7.05
2022-10-18T12:51:18.679Z,6.78
2022-10-18T12:54:01.436Z,7.20
2022-10-18T12:56:28.943Z,6.18
2022-10-18T12:59:15.431Z,6.22
2022-10-18T13:01:52.275Z,7.95
2022-10-18T13:04:46.161Z,6.50
2022-10-18T13:07:19.864Z,7.53
2022-10-18T13:10:16.192Z,7.30
2022-10-18T13:13:14.215Z,8.60
2022-10-18T13:16:03.237Z,7.72
2022-10-18T13:19:04.799Z,9.38
2022-10-18T13:21:46.903Z,11.52
2022-10-18T13:24:43.664Z,7.68
2022-10-18T13:27:38.162Z,10.95
2022-10-18T13:30:21.789Z,8.18
2022-10-18T13:33:37.123Z,7.97
2022-10-18T13:36:23.038Z,8.57
2022-10-18T13:38:58.658Z,9.07
2022-10-18T13:41:48.187Z,9.05
2022-10-18T13:44:41.393Z,7.62
2022-10-18T13:47:09.962Z,9.85
2022-10-18T13:49:40.670Z,19.35
2022-10-18T13:52:56.892Z,8.27
2022-10-18T13:55:52.078Z,8.63
2022-10-18T13:58:44.623Z,11.82
2022-10-18T14:01:42.672Z,8.23
2022-10-18T14:04:45.692Z,7.15
2022-10-18T14:07:13.892Z,11.82
2022-10-18T14:09:52.480Z,8.43
2022-10-18T14:12:41.600Z,7.15
2022-10-18T14:15:24.957Z,6.82
2022-10-18T14:17:58.026Z,7.00
2022-10-18T14:20:55.374Z,9.60
2022-10-18T14:23:36.263Z,7.05
2022-10-18T14:26:21.605Z,7.25
2022-10-18T14:29:05.252Z,9.48
2022-10-18T14:31:33.712Z,7.65
2022-10-18T14:34:02.332Z,6.28
2022-10-18T14:36:43.479Z,6.82
2022-10-18T14:39:22.173Z,7.70
2022-10-18T14:41:57.117Z,6.28
2022-10-18T14:44:30.811Z,5.93
2022-10-18T14:47:04.697Z,6.28
2022-10-18T14:49:32.430Z,7.07
2022-10-18T14:52:01.738Z,7.70
2022-10-18T14:54:37.529Z,7.40
2022-10-18T14:57:06.900Z,8.35
2022-10-18T14:59:52.914Z,9.07
2022-10-18T15:02:24.838Z,7.82
2022-10-18T15:05:20.551Z,9.90
2022-10-18T15:07:49.434Z,11.55
2022-10-18T15:10:19.482Z,10.77
2022-10-18T15:13:08.841Z,7.90
2022-10-18T15:15:36.644Z,8.85
2022-10-18T15:18:06.360Z,8.40
2022-10-18T15:20:40.348Z,10.30
2022-10-18T15:23:29.238Z,8.68
2022-10-18T15:26:13.438Z,9.63
2022-10-18T15:28:52.179Z,7.85
2022-10-18T15:31:29.480Z,8.15
2022-10-18T15:34:11.841Z,8.40
2022-10-18T15:36:39.886Z,7.68
2022-10-18T15:39:15.182Z,7.53
2022-10-18T15:41:56.953Z,10.80
2022-10-18T15:44:36.649Z,7.20
2022-10-18T15:47:13.242Z,7.68
2022-10-18T15:49:46.547Z,7.55
2022-10-18T15:52:26.238Z,7.80
2022-10-18T15:54:53.873Z,10.27
2022-10-18T15:57:21.734Z,10.82
2022-10-18T16:00:03.047Z,6.90
2022-10-18T16:02:31.964Z,9.60
2022-10-18T16:05:03.928Z,9.05
2022-10-18T16:07:31.939Z,6.95
2022-10-18T16:09:59.852Z,7.85
2022-10-18T16:12:27.441Z,7.72
2022-10-18T16:14:55.087Z,7.62
2022-10-18T16:17:22.753Z,10.55
2022-10-18T16:19:50.401Z,9.00
2022-10-18T16:22:18.158Z,9.88
2022-10-18T16:24:45.821Z,11.43
2022-10-18T16:27:13.432Z,8.57
2022-10-18T16:29:42.612Z,9.18
2022-10-18T16:32:10.323Z,11.35
2022-10-18T16:34:37.924Z,9.48
2022-10-18T16:37:05.571Z,8.85
2022-10-18T16:39:35.970Z,10.00
2022-10-18T16:42:03.635Z,10.00
2022-10-18T16:44:31.337Z,7.93
2022-10-18T16:46:58.984Z,8.35
2022-10-18T16:49:27.811Z,11.18
2022-10-18T16:51:55.800Z,9.02
2022-10-18T16:54:24.551Z,10.52
2022-10-18T16:56:52.400Z,10.27
2022-10-18T16:59:27.663Z,11.48
2022-10-18T17:01:55.529Z,13.73
2022-10-18T17:04:23.315Z,8.95
2022-10-18T17:06:51.383Z,9.35
2022-10-18T17:09:19.238Z,8.65
2022-10-18T17:11:46.944Z,12.77
2022-10-18T17:14:14.589Z,9.48
2022-10-18T17:16:45.587Z,11.12
2022-10-18T17:19:16.617Z,8.80
2022-10-18T17:21:44.354Z,9.43
2022-10-18T17:24:12.237Z,11.18
2022-10-18T17:26:39.917Z,8.35
2022-10-18T17:29:09.318Z,9.13
2022-10-18T17:31:37.136Z,10.20
2022-10-18T17:34:05.354Z,9.27
2022-10-18T17:36:34.660Z,10.45
2022-10-18T17:39:02.744Z,8.70
2022-10-18T17:41:30.685Z,9.30
2022-10-18T17:43:58.399Z,10.80
2022-10-18T17:46:26.138Z,9.35
2022-10-18T17:48:54.538Z,8.38
2022-10-18T17:51:23.232Z,10.82
2022-10-18T17:53:51.062Z,9.65
2022-10-18T17:56:18.796Z,8.70
2022-10-18T17:58:47.924Z,10.18
2022-10-18T18:01:18.907Z,11.35
2022-10-18T18:03:48.756Z,12.95
2022-10-18T18:06:32.012Z,13.32
2022-10-18T18:09:01.247Z,10.27
2022-10-18T18:11:29.986Z,8.90
2022-10-18T18:16:27.876Z,11.95
2022-10-18T18:18:58.021Z,10.57
2022-10-18T18:21:27.044Z,10.57
2022-10-18T18:23:55.068Z,9.55
2022-10-18T18:26:23.928Z,10.13
2022-10-18T18:28:51.757Z,11.25
2022-10-18T18:31:24.588Z,10.90
2022-10-18T18:33:53.801Z,11.12
2022-10-18T18:36:22.416Z,10.35
2022-10-18T18:38:56.925Z,9.05
2022-10-18T18:41:27.025Z,10.90
2022-10-18T18:44:00.141Z,12.80
2022-10-18T18:46:30.239Z,12.88
2022-10-18T18:48:59.410Z,11.18
2022-10-18T18:51:27.476Z,10.23
2022-10-18T18:53:55.611Z,13.07
2022-10-18T18:56:26.469Z,13.57
2022-10-18T18:58:54.768Z,12.75
2022-10-18T19:01:24.957Z,12.20
2022-10-18T19:03:54.589Z,12.50
2022-10-18T19:06:30.561Z,13.20
2022-10-18T19:09:04.227Z,10.90
2022-10-18T19:11:35.519Z,11.70
2022-10-18T19:14:04.024Z,9.90
2022-10-18T19:16:34.748Z,12.05
2022-10-18T19:19:12.712Z,13.20
2022-10-18T19:21:42.794Z,10.65
2022-10-18T19:24:10.455Z,10.75
2022-10-18T19:26:47.068Z,13.07
2022-10-18T19:29:41.932Z,10.20
2022-10-18T19:32:13.091Z,11.05
2022-10-18T19:34:41.103Z,9.43
2022-10-18T19:37:10.550Z,9.73
2022-10-18T19:39:38.658Z,11.55
2022-10-18T19:42:16.014Z,10.68
2022-10-18T19:44:46.350Z,11.27
2022-10-18T19:47:15.766Z,9.43
2022-10-18T19:49:46.181Z,7.57
2022-10-18T19:52:14.099Z,10.30
2022-10-18T19:54:41.803Z,16.15
2022-10-18T19:57:09.898Z,7.93
2022-10-18T19:59:37.642Z,11.55
2022-10-18T20:02:05.818Z,10.55
2022-10-18T20:04:35.880Z,12.95
2022-10-18T20:07:03.907Z,18.55
2022-10-18T20:09:31.719Z,8.07
2022-10-18T20:11:59.351Z,12.02
2022-10-18T20:14:27.175Z,12.32
2022-10-18T20:16:54.929Z,9.95
2022-10-18T20:19:22.603Z,10.20
2022-10-18T20:21:50.323Z,10.45
2022-10-18T20:24:18.037Z,14.05
2022-10-18T20:26:45.923Z,12.65
2022-10-18T20:29:13.755Z,11.23
2022-10-18T20:31:41.466Z,12.35
2022-10-18T20:34:14.899Z,12.13
2022-10-18T20:36:42.849Z,9.98
2022-10-18T20:39:10.924Z,9.32
2022-10-18T20:41:42.043Z,9.73
2022-10-18T20:44:14.585Z,10.00
2022-10-18T20:46:42.937Z,11.20
2022-10-18T20:49:16.386Z,9.88
2022-10-18T20:51:44.312Z,9.57
2022-10-18T20:54:14.904Z,10.63
2022-10-18T20:56:42.851Z,11.07
2022-10-18T20:59:10.990Z,10.23
2022-10-18T21:01:40.070Z,10.82
2022-10-18T21:04:10.304Z,9.48
2022-10-18T21:06:44.192Z,10.25
2022-10-18T21:09:14.848Z,11.12
2022-10-18T21:11:45.801Z,10.30
2022-10-18T21:14:21.486Z,10.75
2022-10-18T21:16:50.317Z,12.68
2022-10-18T21:19:26.537Z,11.73
2022-10-18T21:21:58.430Z,9.77
2022-10-18T21:24:26.948Z,9.57
2022-10-18T21:26:55.730Z,9.40
2022-10-18T21:29:25.662Z,11.38
2022-10-18T21:31:59.098Z,13.02
2022-10-18T21:34:27.526Z,7.95
2022-10-18T21:36:55.204Z,8.25
2022-10-18T21:41:57.030Z,11.10
2022-10-18T21:44:24.751Z,9.90
2022-10-18T21:46:52.729Z,12.18
2022-10-18T21:49:20.523Z,12.95
2022-10-18T21:51:48.184Z,10.45
2022-10-18T21:54:17.238Z,11.98
2022-10-18T21:56:45.314Z,11.45
2022-10-18T21:59:13.684Z,9.77
2022-10-18T22:01:41.619Z,11.70
2022-10-18T22:04:19.868Z,16.30
2022-10-18T22:06:47.506Z,15.73
2022-10-18T22:09:15.341Z,12.80
2022-10-18T22:11:47.267Z,15.30
2022-10-18T22:14:14.958Z,12.88
2022-10-18T22:16:42.589Z,12.07
2022-10-18T22:19:10.250Z,13.10
2022-10-18T22:21:37.906Z,9.52
2022-10-18T22:24:07.707Z,11.98
2022-10-18T22:26:38.393Z,16.85
2022-10-18T22:29:10.912Z,11.23
2022-10-18T22:31:41.475Z,9.90
2022-10-18T22:34:14.742Z,14.65
2022-10-18T22:36:43.146Z,9.00
2022-10-18T22:39:11.510Z,8.93
2022-10-18T22:41:39.116Z,12.00
2022-10-18T22:44:07.029Z,10.15
2022-10-18T22:46:36.153Z,9.98
2022-10-18T22:49:03.831Z,10.13
2022-10-18T22:51:31.883Z,10.63
2022-10-18T22:53:59.687Z,10.10
2022-10-18T22:56:27.503Z,9.75
2022-10-18T22:58:55.248Z,7.65
2022-10-18T23:01:24.854Z,10.63
2022-10-18T23:03:59.955Z,8.57
2022-10-18T23:06:33.482Z,8.90
2022-10-18T23:09:03.453Z,9.07
2022-10-18T23:11:31.117Z,14.57
2022-10-18T23:13:59.142Z,11.63
2022-10-18T23:16:26.776Z,9.05
2022-10-18T23:18:56.438Z,8.40
2022-10-18T23:21:25.932Z,10.20
2022-10-18T23:23:54.917Z,7.80
2022-10-18T23:26:25.578Z,8.70
2022-10-18T23:28:54.323Z,12.70
2022-10-18T23:31:25.784Z,7.40
2022-10-18T23:33:55.284Z,11.05
2022-10-18T23:36:23.570Z,11.63
2022-10-18T23:38:51.849Z,10.32
2022-10-18T23:41:19.771Z,8.80
2022-10-18T23:43:47.807Z,9.70
2022-10-18T23:46:16.638Z,14.45
2022-10-18T23:48:44.758Z,11.12
2022-10-18T23:51:12.894Z,10.63
2022-10-18T23:53:40.780Z,9.77
2022-10-18T23:56:11.300Z,9.25
2022-10-18T23:58:40.077Z,8.52
